sensor_id;sensor_type;location;lat;lon;timestamp;temperature;humidity
34985;DHT22;21190;58.750;17.004;2024-03-17T00:02:18;-0.50;99.90
34985;DHT22;21190;58.750;17.004;2024-03-17T00:04:47;-0.50;99.90
34985;DHT22;21190;58.750;17.004;2024-03-17T00:07:13;-0.50;99.90
34985;DHT22;21190;58.750;17.004;2024-03-17T00:09:40;-0.50;99.90
34985;DHT22;21190;58.750;17.004;2024-03-17T00:12:07;-0.60;99.90
34985;DHT22;21190;58.750;17.004;2024-03-17T00:14:34;-0.50;99.90
34985;DHT22;21190;58.750;17.004;2024-03-17T00:17:01;-0.50;99.90
34985;DHT22;21190;58.750;17.004;2024-03-17T00:19:27;-0.60;99.90
34985;DHT22;21190;58.750;17.004;2024-03-17T00:21:53;-0.50;99.90
34985;DHT22;21190;58.750;17.004;2024-03-17T00:24:19;-0.50;99.90
34985;DHT22;21190;58.750;17.004;2024-03-17T00:26:49;-0.60;99.90
34985;DHT22;21190;58.750;17.004;2024-03-17T00:29:15;-0.60;99.90
34985;DHT22;21190;58.750;17.004;2024-03-17T00:31:41;-0.60;99.90
34985;DHT22;21190;58.750;17.004;2024-03-17T00:34:08;-0.60;99.90
34985;DHT22;21190;58.750;17.004;2024-03-17T00:36:35;-0.60;99.90
34985;DHT22;21190;58.750;17.004;2024-03-17T00:39:01;-0.60;99.90
34985;DHT22;21190;58.750;17.004;2024-03-17T00:41:27;-0.60;99.90
34985;DHT22;21190;58.750;17.004;2024-03-17T00:43:53;-0.50;99.90
34985;DHT22;21190;58.750;17.004;2024-03-17T00:46:22;-0.60;99.90
34985;DHT22;21190;58.750;17.004;2024-03-17T00:48:49;-0.60;99.90
34985;DHT22;21190;58.750;17.004;2024-03-17T00:51:15;-0.50;99.90
34985;DHT22;21190;58.750;17.004;2024-03-17T00:53:42;-0.50;99.90
34985;DHT22;21190;58.750;17.004;2024-03-17T00:56:08;-0.60;99.90
34985;DHT22;21190;58.750;17.004;2024-03-17T00:58:35;-0.60;99.90
34985;DHT22;21190;58.750;17.004;2024-03-17T01:01:01;-0.50;99.90
34985;DHT22;21190;58.750;17.004;2024-03-17T01:03:27;-0.50;99.90
34985;DHT22;21190;58.750;17.004;2024-03-17T01:05:53;-0.60;99.90
34985;DHT22;21190;58.750;17.004;2024-03-17T01:08:20;-0.60;99.90
34985;DHT22;21190;58.750;17.004;2024-03-17T01:10:47;-0.60;99.90
34985;DHT22;21190;58.750;17.004;2024-03-17T01:13:16;-0.60;99.90
34985;DHT22;21190;58.750;17.004;2024-03-17T01:15:42;-0.60;99.90
34985;DHT22;21190;58.750;17.004;2024-03-17T01:18:09;-0.60;99.90
34985;DHT22;21190;58.750;17.004;2024-03-17T01:20:36;-0.50;99.90
34985;DHT22;21190;58.750;17.004;2024-03-17T01:23:04;-0.60;99.90
34985;DHT22;21190;58.750;17.004;2024-03-17T01:25:30;-0.60;99.90
34985;DHT22;21190;58.750;17.004;2024-03-17T01:27:57;-0.60;99.90
34985;DHT22;21190;58.750;17.004;2024-03-17T01:30:23;-0.60;99.90
34985;DHT22;21190;58.750;17.004;2024-03-17T01:32:51;-0.60;99.90
34985;DHT22;21190;58.750;17.004;2024-03-17T01:35:17;-0.60;99.90
34985;DHT22;21190;58.750;17.004;2024-03-17T01:37:44;-0.60;99.90
34985;DHT22;21190;58.750;17.004;2024-03-17T01:40:10;-0.60;99.90
34985;DHT22;21190;58.750;17.004;2024-03-17T01:42:38;-0.70;99.90
34985;DHT22;21190;58.750;17.004;2024-03-17T01:47:43;-0.70;99.90
34985;DHT22;21190;58.750;17.004;2024-03-17T01:50:10;-0.70;99.90
34985;DHT22;21190;58.750;17.004;2024-03-17T01:52:39;-0.70;99.90
34985;DHT22;21190;58.750;17.004;2024-03-17T01:55:06;-0.70;99.90
34985;DHT22;21190;58.750;17.004;2024-03-17T01:57:33;-0.60;99.90
34985;DHT22;21190;58.750;17.004;2024-03-17T01:59:59;-0.70;99.90
34985;DHT22;21190;58.750;17.004;2024-03-17T02:02:25;-0.70;99.90
34985;DHT22;21190;58.750;17.004;2024-03-17T02:04:52;-0.70;99.90
34985;DHT22;21190;58.750;17.004;2024-03-17T02:07:18;-0.70;99.90
34985;DHT22;21190;58.750;17.004;2024-03-17T02:09:45;-0.70;99.90
34985;DHT22;21190;58.750;17.004;2024-03-17T02:12:11;-0.80;99.90
34985;DHT22;21190;58.750;17.004;2024-03-17T02:14:38;-0.80;99.90
34985;DHT22;21190;58.750;17.004;2024-03-17T02:17:04;-0.80;99.90
34985;DHT22;21190;58.750;17.004;2024-03-17T02:19:30;-0.70;99.90
34985;DHT22;21190;58.750;17.004;2024-03-17T02:21:57;-0.80;99.90
34985;DHT22;21190;58.750;17.004;2024-03-17T02:24:23;-0.80;99.90
34985;DHT22;21190;58.750;17.004;2024-03-17T02:26:49;-0.80;99.90
34985;DHT22;21190;58.750;17.004;2024-03-17T02:29:15;-0.80;99.90
34985;DHT22;21190;58.750;17.004;2024-03-17T02:31:41;-0.80;99.90
34985;DHT22;21190;58.750;17.004;2024-03-17T02:34:07;-0.80;99.90
34985;DHT22;21190;58.750;17.004;2024-03-17T02:36:34;-0.80;99.90
34985;DHT22;21190;58.750;17.004;2024-03-17T02:39:00;-0.80;99.90
34985;DHT22;21190;58.750;17.004;2024-03-17T02:41:45;-0.80;99.90
34985;DHT22;21190;58.750;17.004;2024-03-17T02:44:11;-0.70;99.90
34985;DHT22;21190;58.750;17.004;2024-03-17T02:46:38;-0.80;99.90
34985;DHT22;21190;58.750;17.004;2024-03-17T02:49:04;-0.80;99.90
34985;DHT22;21190;58.750;17.004;2024-03-17T02:51:30;-0.80;99.90
34985;DHT22;21190;58.750;17.004;2024-03-17T02:53:57;-0.80;99.90
34985;DHT22;21190;58.750;17.004;2024-03-17T02:56:25;-0.80;99.90
34985;DHT22;21190;58.750;17.004;2024-03-17T02:58:51;-0.80;99.90
34985;DHT22;21190;58.750;17.004;2024-03-17T03:01:17;-0.80;99.90
34985;DHT22;21190;58.750;17.004;2024-03-17T03:03:45;-0.80;99.90
34985;DHT22;21190;58.750;17.004;2024-03-17T03:06:11;-0.90;99.90
34985;DHT22;21190;58.750;17.004;2024-03-17T03:08:39;-0.90;99.90
34985;DHT22;21190;58.750;17.004;2024-03-17T03:11:08;-0.80;99.90
34985;DHT22;21190;58.750;17.004;2024-03-17T03:13:41;-0.80;99.90
34985;DHT22;21190;58.750;17.004;2024-03-17T03:16:11;-0.90;99.90
34985;DHT22;21190;58.750;17.004;2024-03-17T03:18:38;-0.90;99.90
34985;DHT22;21190;58.750;17.004;2024-03-17T03:21:07;-0.90;99.90
34985;DHT22;21190;58.750;17.004;2024-03-17T03:23:33;-0.90;99.90
34985;DHT22;21190;58.750;17.004;2024-03-17T03:26:01;-0.90;99.90
34985;DHT22;21190;58.750;17.004;2024-03-17T03:28:32;-0.90;99.90
34985;DHT22;21190;58.750;17.004;2024-03-17T03:30:59;-0.90;99.90
34985;DHT22;21190;58.750;17.004;2024-03-17T03:33:25;-0.90;99.90
34985;DHT22;21190;58.750;17.004;2024-03-17T03:35:51;-0.90;99.90
34985;DHT22;21190;58.750;17.004;2024-03-17T03:38:18;-1.00;99.90
34985;DHT22;21190;58.750;17.004;2024-03-17T03:40:48;-1.00;99.90
34985;DHT22;21190;58.750;17.004;2024-03-17T03:43:14;-0.90;99.90
34985;DHT22;21190;58.750;17.004;2024-03-17T03:45:41;-1.00;99.90
34985;DHT22;21190;58.750;17.004;2024-03-17T03:48:08;-0.90;99.90
34985;DHT22;21190;58.750;17.004;2024-03-17T03:50:35;-1.00;99.90
34985;DHT22;21190;58.750;17.004;2024-03-17T03:53:01;-1.00;99.90
34985;DHT22;21190;58.750;17.004;2024-03-17T03:55:27;-1.00;99.90
34985;DHT22;21190;58.750;17.004;2024-03-17T03:57:55;-1.10;99.90
34985;DHT22;21190;58.750;17.004;2024-03-17T04:00:21;-1.10;99.90
34985;DHT22;21190;58.750;17.004;2024-03-17T04:02:49;-1.10;99.90
34985;DHT22;21190;58.750;17.004;2024-03-17T04:05:16;-1.20;99.90
34985;DHT22;21190;58.750;17.004;2024-03-17T04:07:42;-1.20;99.90
34985;DHT22;21190;58.750;17.004;2024-03-17T04:10:09;-1.20;99.90
34985;DHT22;21190;58.750;17.004;2024-03-17T04:12:36;-1.30;99.90
34985;DHT22;21190;58.750;17.004;2024-03-17T04:15:04;-1.30;99.90
34985;DHT22;21190;58.750;17.004;2024-03-17T04:17:32;-1.20;99.90
34985;DHT22;21190;58.750;17.004;2024-03-17T04:19:59;-1.30;99.90
34985;DHT22;21190;58.750;17.004;2024-03-17T04:22:25;-1.20;99.90
34985;DHT22;21190;58.750;17.004;2024-03-17T04:24:52;-1.20;99.90
34985;DHT22;21190;58.750;17.004;2024-03-17T04:27:26;-1.20;99.90
34985;DHT22;21190;58.750;17.004;2024-03-17T04:29:56;-1.20;99.90
34985;DHT22;21190;58.750;17.004;2024-03-17T04:32:23;-1.10;99.90
34985;DHT22;21190;58.750;17.004;2024-03-17T04:34:50;-1.10;99.90
34985;DHT22;21190;58.750;17.004;2024-03-17T04:37:16;-1.10;99.90
34985;DHT22;21190;58.750;17.004;2024-03-17T04:39:43;-1.10;99.90
34985;DHT22;21190;58.750;17.004;2024-03-17T04:42:11;-1.10;99.90
34985;DHT22;21190;58.750;17.004;2024-03-17T04:44:38;-1.10;99.90
34985;DHT22;21190;58.750;17.004;2024-03-17T04:47:05;-1.10;99.90
34985;DHT22;21190;58.750;17.004;2024-03-17T04:49:40;-1.10;99.90
34985;DHT22;21190;58.750;17.004;2024-03-17T04:52:07;-1.00;99.90
34985;DHT22;21190;58.750;17.004;2024-03-17T04:54:34;-1.00;99.90
34985;DHT22;21190;58.750;17.004;2024-03-17T04:57:01;-1.00;99.90
34985;DHT22;21190;58.750;17.004;2024-03-17T04:59:28;-0.90;99.90
34985;DHT22;21190;58.750;17.004;2024-03-17T05:01:54;-0.90;99.90
34985;DHT22;21190;58.750;17.004;2024-03-17T05:04:21;-0.90;99.90
34985;DHT22;21190;58.750;17.004;2024-03-17T05:06:48;-0.80;99.90
34985;DHT22;21190;58.750;17.004;2024-03-17T05:09:19;-0.80;99.90
34985;DHT22;21190;58.750;17.004;2024-03-17T05:11:46;-0.80;99.90
34985;DHT22;21190;58.750;17.004;2024-03-17T05:14:13;-0.80;99.90
34985;DHT22;21190;58.750;17.004;2024-03-17T05:16:39;-0.80;99.90
34985;DHT22;21190;58.750;17.004;2024-03-17T05:19:05;-0.80;99.90
34985;DHT22;21190;58.750;17.004;2024-03-17T05:21:32;-0.80;99.90
34985;DHT22;21190;58.750;17.004;2024-03-17T05:24:01;-0.80;99.90
34985;DHT22;21190;58.750;17.004;2024-03-17T05:26:28;-0.80;99.90
34985;DHT22;21190;58.750;17.004;2024-03-17T05:28:54;-0.80;99.90
34985;DHT22;21190;58.750;17.004;2024-03-17T05:31:20;-0.80;99.90
34985;DHT22;21190;58.750;17.004;2024-03-17T05:33:48;-0.80;99.90
34985;DHT22;21190;58.750;17.004;2024-03-17T05:36:14;-0.80;99.90
34985;DHT22;21190;58.750;17.004;2024-03-17T05:38:41;-0.80;99.90
34985;DHT22;21190;58.750;17.004;2024-03-17T05:41:08;-0.80;99.90
34985;DHT22;21190;58.750;17.004;2024-03-17T05:43:36;-0.80;99.90
34985;DHT22;21190;58.750;17.004;2024-03-17T05:46:08;-0.80;99.90
34985;DHT22;21190;58.750;17.004;2024-03-17T05:48:41;-0.90;99.90
34985;DHT22;21190;58.750;17.004;2024-03-17T05:51:08;-0.90;99.90
34985;DHT22;21190;58.750;17.004;2024-03-17T05:53:35;-0.90;99.90
34985;DHT22;21190;58.750;17.004;2024-03-17T05:56:03;-0.90;99.90
34985;DHT22;21190;58.750;17.004;2024-03-17T05:58:30;-0.90;99.90
34985;DHT22;21190;58.750;17.004;2024-03-17T06:00:56;-0.90;99.90
34985;DHT22;21190;58.750;17.004;2024-03-17T06:03:24;-0.90;99.90
34985;DHT22;21190;58.750;17.004;2024-03-17T06:05:50;-0.90;99.90
34985;DHT22;21190;58.750;17.004;2024-03-17T06:08:16;-0.90;99.90
34985;DHT22;21190;58.750;17.004;2024-03-17T06:10:44;-0.90;99.90
34985;DHT22;21190;58.750;17.004;2024-03-17T06:13:12;-0.90;99.90
34985;DHT22;21190;58.750;17.004;2024-03-17T06:15:39;-0.90;99.90
34985;DHT22;21190;58.750;17.004;2024-03-17T06:18:06;-0.80;99.90
34985;DHT22;21190;58.750;17.004;2024-03-17T06:20:35;-0.90;99.90
34985;DHT22;21190;58.750;17.004;2024-03-17T06:23:01;-0.90;99.90
34985;DHT22;21190;58.750;17.004;2024-03-17T06:25:27;-0.90;99.90
34985;DHT22;21190;58.750;17.004;2024-03-17T06:27:54;-0.90;99.90
34985;DHT22;21190;58.750;17.004;2024-03-17T06:30:23;-0.90;99.90
34985;DHT22;21190;58.750;17.004;2024-03-17T06:32:49;-0.90;99.90
34985;DHT22;21190;58.750;17.004;2024-03-17T06:35:15;-0.80;99.90
34985;DHT22;21190;58.750;17.004;2024-03-17T06:37:42;-0.90;99.90
34985;DHT22;21190;58.750;17.004;2024-03-17T06:40:15;-0.90;99.90
34985;DHT22;21190;58.750;17.004;2024-03-17T06:42:42;-0.90;99.90
34985;DHT22;21190;58.750;17.004;2024-03-17T06:45:08;-0.80;99.90
34985;DHT22;21190;58.750;17.004;2024-03-17T06:47:38;-0.80;99.90
34985;DHT22;21190;58.750;17.004;2024-03-17T06:50:05;-0.80;99.90
34985;DHT22;21190;58.750;17.004;2024-03-17T06:52:32;-0.80;99.90
34985;DHT22;21190;58.750;17.004;2024-03-17T06:54:58;-0.80;99.90
34985;DHT22;21190;58.750;17.004;2024-03-17T06:57:25;-0.80;99.90
34985;DHT22;21190;58.750;17.004;2024-03-17T06:59:51;-0.70;99.90
34985;DHT22;21190;58.750;17.004;2024-03-17T07:02:17;-0.70;99.90
34985;DHT22;21190;58.750;17.004;2024-03-17T07:04:46;-0.60;99.90
34985;DHT22;21190;58.750;17.004;2024-03-17T07:07:13;-0.60;99.90
34985;DHT22;21190;58.750;17.004;2024-03-17T07:09:40;-0.70;99.90
34985;DHT22;21190;58.750;17.004;2024-03-17T07:12:08;-0.70;99.90
34985;DHT22;21190;58.750;17.004;2024-03-17T07:14:34;-0.70;99.90
34985;DHT22;21190;58.750;17.004;2024-03-17T07:17:01;-0.70;99.90
34985;DHT22;21190;58.750;17.004;2024-03-17T07:19:27;-0.70;99.90
34985;DHT22;21190;58.750;17.004;2024-03-17T07:21:54;-0.60;99.90
34985;DHT22;21190;58.750;17.004;2024-03-17T07:24:21;-0.60;99.90
34985;DHT22;21190;58.750;17.004;2024-03-17T07:26:50;-0.60;99.90
34985;DHT22;21190;58.750;17.004;2024-03-17T07:29:16;-0.60;99.90
34985;DHT22;21190;58.750;17.004;2024-03-17T07:31:45;-0.60;99.90
34985;DHT22;21190;58.750;17.004;2024-03-17T07:34:11;-0.60;99.90
34985;DHT22;21190;58.750;17.004;2024-03-17T07:36:37;-0.60;99.90
34985;DHT22;21190;58.750;17.004;2024-03-17T07:39:05;-0.60;99.90
34985;DHT22;21190;58.750;17.004;2024-03-17T07:41:33;-0.60;99.90
34985;DHT22;21190;58.750;17.004;2024-03-17T07:43:59;-0.50;99.90
34985;DHT22;21190;58.750;17.004;2024-03-17T07:46:25;-0.60;99.90
34985;DHT22;21190;58.750;17.004;2024-03-17T07:48:51;-0.50;99.90
34985;DHT22;21190;58.750;17.004;2024-03-17T07:51:17;-0.50;99.90
34985;DHT22;21190;58.750;17.004;2024-03-17T07:53:45;-0.50;99.90
34985;DHT22;21190;58.750;17.004;2024-03-17T07:56:14;-0.50;99.90
34985;DHT22;21190;58.750;17.004;2024-03-17T07:58:42;-0.40;99.90
34985;DHT22;21190;58.750;17.004;2024-03-17T08:01:13;-0.40;99.90
34985;DHT22;21190;58.750;17.004;2024-03-17T08:03:41;-0.40;99.90
34985;DHT22;21190;58.750;17.004;2024-03-17T08:06:10;-0.40;99.90
34985;DHT22;21190;58.750;17.004;2024-03-17T08:08:39;-0.30;99.90
34985;DHT22;21190;58.750;17.004;2024-03-17T08:11:06;-0.30;99.90
34985;DHT22;21190;58.750;17.004;2024-03-17T08:13:32;-0.10;99.90
34985;DHT22;21190;58.750;17.004;2024-03-17T08:16:06;-0.10;99.90
34985;DHT22;21190;58.750;17.004;2024-03-17T08:18:34;-0.30;99.90
34985;DHT22;21190;58.750;17.004;2024-03-17T08:21:02;-0.40;99.90
34985;DHT22;21190;58.750;17.004;2024-03-17T08:23:30;-0.40;99.90
34985;DHT22;21190;58.750;17.004;2024-03-17T08:25:57;-0.40;99.90
34985;DHT22;21190;58.750;17.004;2024-03-17T08:28:25;-0.30;99.90
34985;DHT22;21190;58.750;17.004;2024-03-17T08:30:55;-0.30;99.90
34985;DHT22;21190;58.750;17.004;2024-03-17T08:33:22;-0.30;99.90
34985;DHT22;21190;58.750;17.004;2024-03-17T08:35:53;-0.20;99.90
34985;DHT22;21190;58.750;17.004;2024-03-17T08:38:20;-0.20;99.90
34985;DHT22;21190;58.750;17.004;2024-03-17T08:40:47;-0.20;99.90
34985;DHT22;21190;58.750;17.004;2024-03-17T08:43:13;-0.20;99.90
34985;DHT22;21190;58.750;17.004;2024-03-17T08:45:39;-0.10;99.90
34985;DHT22;21190;58.750;17.004;2024-03-17T08:48:06;0.00;99.90
34985;DHT22;21190;58.750;17.004;2024-03-17T08:50:32;0.00;99.90
34985;DHT22;21190;58.750;17.004;2024-03-17T08:53:00;0.00;99.90
34985;DHT22;21190;58.750;17.004;2024-03-17T08:55:26;0.00;99.90
34985;DHT22;21190;58.750;17.004;2024-03-17T08:57:52;0.00;99.90
34985;DHT22;21190;58.750;17.004;2024-03-17T09:00:18;0.00;99.90
34985;DHT22;21190;58.750;17.004;2024-03-17T09:02:45;0.00;99.90
34985;DHT22;21190;58.750;17.004;2024-03-17T09:05:11;0.00;99.90
34985;DHT22;21190;58.750;17.004;2024-03-17T09:07:40;0.20;99.90
34985;DHT22;21190;58.750;17.004;2024-03-17T09:10:06;0.20;99.90
34985;DHT22;21190;58.750;17.004;2024-03-17T09:12:32;0.20;99.90
34985;DHT22;21190;58.750;17.004;2024-03-17T09:14:58;0.20;99.90
34985;DHT22;21190;58.750;17.004;2024-03-17T09:17:24;0.30;99.90
34985;DHT22;21190;58.750;17.004;2024-03-17T09:19:50;0.30;99.90
34985;DHT22;21190;58.750;17.004;2024-03-17T09:22:16;0.20;99.90
34985;DHT22;21190;58.750;17.004;2024-03-17T09:24:43;0.20;99.90
34985;DHT22;21190;58.750;17.004;2024-03-17T09:27:09;0.20;99.90
34985;DHT22;21190;58.750;17.004;2024-03-17T09:29:36;0.30;99.90
34985;DHT22;21190;58.750;17.004;2024-03-17T09:32:02;0.30;99.90
34985;DHT22;21190;58.750;17.004;2024-03-17T09:34:28;0.40;99.90
34985;DHT22;21190;58.750;17.004;2024-03-17T09:36:56;0.40;99.90
34985;DHT22;21190;58.750;17.004;2024-03-17T09:39:22;0.40;99.90
34985;DHT22;21190;58.750;17.004;2024-03-17T09:41:50;0.50;99.90
34985;DHT22;21190;58.750;17.004;2024-03-17T09:44:16;0.50;99.90
34985;DHT22;21190;58.750;17.004;2024-03-17T09:46:43;0.50;99.90
34985;DHT22;21190;58.750;17.004;2024-03-17T09:49:15;0.50;99.90
34985;DHT22;21190;58.750;17.004;2024-03-17T09:51:42;0.50;99.90
34985;DHT22;21190;58.750;17.004;2024-03-17T09:54:19;0.60;99.90
34985;DHT22;21190;58.750;17.004;2024-03-17T09:56:45;0.70;99.90
34985;DHT22;21190;58.750;17.004;2024-03-17T09:59:12;0.80;99.90
34985;DHT22;21190;58.750;17.004;2024-03-17T10:01:38;0.90;99.90
34985;DHT22;21190;58.750;17.004;2024-03-17T10:04:04;0.80;99.90
34985;DHT22;21190;58.750;17.004;2024-03-17T10:06:31;0.80;99.90
34985;DHT22;21190;58.750;17.004;2024-03-17T10:08:59;0.80;99.90
34985;DHT22;21190;58.750;17.004;2024-03-17T10:11:34;0.80;99.90
34985;DHT22;21190;58.750;17.004;2024-03-17T10:14:08;0.90;99.90
34985;DHT22;21190;58.750;17.004;2024-03-17T10:16:36;0.90;99.90
34985;DHT22;21190;58.750;17.004;2024-03-17T10:19:35;0.90;99.90
34985;DHT22;21190;58.750;17.004;2024-03-17T10:22:05;1.00;99.90
34985;DHT22;21190;58.750;17.004;2024-03-17T10:24:38;1.00;99.90
34985;DHT22;21190;58.750;17.004;2024-03-17T10:27:04;1.00;99.90
34985;DHT22;21190;58.750;17.004;2024-03-17T10:29:34;1.00;99.90
34985;DHT22;21190;58.750;17.004;2024-03-17T10:32:12;1.00;99.90
34985;DHT22;21190;58.750;17.004;2024-03-17T10:34:44;1.00;99.90
34985;DHT22;21190;58.750;17.004;2024-03-17T10:37:14;1.00;99.90
34985;DHT22;21190;58.750;17.004;2024-03-17T10:39:43;1.00;99.90
34985;DHT22;21190;58.750;17.004;2024-03-17T10:42:10;1.10;99.90
34985;DHT22;21190;58.750;17.004;2024-03-17T10:44:38;1.10;99.90
34985;DHT22;21190;58.750;17.004;2024-03-17T10:47:05;1.00;99.90
34985;DHT22;21190;58.750;17.004;2024-03-17T10:49:37;0.90;99.90
34985;DHT22;21190;58.750;17.004;2024-03-17T10:52:09;0.90;99.90
34985;DHT22;21190;58.750;17.004;2024-03-17T10:54:39;0.90;99.90
34985;DHT22;21190;58.750;17.004;2024-03-17T11:00:02;0.90;99.90
34985;DHT22;21190;58.750;17.004;2024-03-17T11:02:34;0.90;99.90
34985;DHT22;21190;58.750;17.004;2024-03-17T11:05:05;0.90;99.90
34985;DHT22;21190;58.750;17.004;2024-03-17T11:07:38;1.00;99.90
34985;DHT22;21190;58.750;17.004;2024-03-17T11:10:09;1.00;99.90
34985;DHT22;21190;58.750;17.004;2024-03-17T11:12:41;1.00;99.90
34985;DHT22;21190;58.750;17.004;2024-03-17T11:17:47;1.10;99.90
34985;DHT22;21190;58.750;17.004;2024-03-17T11:20:29;1.20;99.90
34985;DHT22;21190;58.750;17.004;2024-03-17T11:22:57;1.10;99.90
34985;DHT22;21190;58.750;17.004;2024-03-17T11:27:57;1.20;99.90
34985;DHT22;21190;58.750;17.004;2024-03-17T11:30:42;1.20;99.90
34985;DHT22;21190;58.750;17.004;2024-03-17T11:39:02;1.30;99.90
34985;DHT22;21190;58.750;17.004;2024-03-17T11:46:54;1.30;99.90
34985;DHT22;21190;58.750;17.004;2024-03-17T11:49:38;1.30;99.90
34985;DHT22;21190;58.750;17.004;2024-03-17T11:52:09;1.30;99.90
34985;DHT22;21190;58.750;17.004;2024-03-17T11:54:38;1.30;99.90
34985;DHT22;21190;58.750;17.004;2024-03-17T11:57:06;1.30;99.90
34985;DHT22;21190;58.750;17.004;2024-03-17T11:59:33;1.30;99.90
34985;DHT22;21190;58.750;17.004;2024-03-17T12:02:00;1.20;99.90
34985;DHT22;21190;58.750;17.004;2024-03-17T12:04:28;1.20;99.90
34985;DHT22;21190;58.750;17.004;2024-03-17T12:06:55;1.20;99.90
34985;DHT22;21190;58.750;17.004;2024-03-17T12:09:29;1.20;99.90
34985;DHT22;21190;58.750;17.004;2024-03-17T12:12:04;1.10;99.90
34985;DHT22;21190;58.750;17.004;2024-03-17T12:14:31;1.20;99.90
34985;DHT22;21190;58.750;17.004;2024-03-17T12:17:00;1.20;99.90
34985;DHT22;21190;58.750;17.004;2024-03-17T12:19:27;1.20;99.90
34985;DHT22;21190;58.750;17.004;2024-03-17T12:21:58;1.20;99.90
34985;DHT22;21190;58.750;17.004;2024-03-17T12:24:29;1.30;99.90
34985;DHT22;21190;58.750;17.004;2024-03-17T12:26:57;1.50;99.90
34985;DHT22;21190;58.750;17.004;2024-03-17T12:29:35;1.50;99.90
34985;DHT22;21190;58.750;17.004;2024-03-17T12:32:04;1.40;99.90
34985;DHT22;21190;58.750;17.004;2024-03-17T12:34:34;1.30;99.90
34985;DHT22;21190;58.750;17.004;2024-03-17T12:37:01;1.20;99.90
34985;DHT22;21190;58.750;17.004;2024-03-17T12:39:29;1.20;99.90
34985;DHT22;21190;58.750;17.004;2024-03-17T12:42:09;1.30;99.90
34985;DHT22;21190;58.750;17.004;2024-03-17T12:44:38;1.40;99.90
34985;DHT22;21190;58.750;17.004;2024-03-17T12:47:14;1.20;99.90
34985;DHT22;21190;58.750;17.004;2024-03-17T12:49:48;1.20;99.90
34985;DHT22;21190;58.750;17.004;2024-03-17T12:52:20;1.40;99.90
34985;DHT22;21190;58.750;17.004;2024-03-17T12:55:09;1.40;99.90
34985;DHT22;21190;58.750;17.004;2024-03-17T13:01:00;1.40;99.90
34985;DHT22;21190;58.750;17.004;2024-03-17T13:03:28;1.50;99.90
34985;DHT22;21190;58.750;17.004;2024-03-17T13:05:55;1.40;99.90
34985;DHT22;21190;58.750;17.004;2024-03-17T13:08:21;1.40;99.90
34985;DHT22;21190;58.750;17.004;2024-03-17T13:10:47;1.20;99.90
34985;DHT22;21190;58.750;17.004;2024-03-17T13:13:14;1.20;99.90
34985;DHT22;21190;58.750;17.004;2024-03-17T13:15:42;1.20;99.90
34985;DHT22;21190;58.750;17.004;2024-03-17T13:18:12;1.10;99.90
34985;DHT22;21190;58.750;17.004;2024-03-17T13:20:41;1.00;99.90
34985;DHT22;21190;58.750;17.004;2024-03-17T13:23:07;0.90;99.90
34985;DHT22;21190;58.750;17.004;2024-03-17T13:25:33;1.00;99.90
34985;DHT22;21190;58.750;17.004;2024-03-17T13:28:05;0.90;99.90
34985;DHT22;21190;58.750;17.004;2024-03-17T13:30:33;0.80;99.90
34985;DHT22;21190;58.750;17.004;2024-03-17T13:33:02;0.70;99.90
34985;DHT22;21190;58.750;17.004;2024-03-17T13:35:35;0.70;99.90
34985;DHT22;21190;58.750;17.004;2024-03-17T13:38:07;0.70;99.90
34985;DHT22;21190;58.750;17.004;2024-03-17T13:40:35;0.80;99.90
34985;DHT22;21190;58.750;17.004;2024-03-17T13:43:01;0.90;99.90
34985;DHT22;21190;58.750;17.004;2024-03-17T13:45:36;1.00;99.90
34985;DHT22;21190;58.750;17.004;2024-03-17T13:48:04;0.90;99.90
34985;DHT22;21190;58.750;17.004;2024-03-17T13:50:31;0.90;99.90
34985;DHT22;21190;58.750;17.004;2024-03-17T13:52:57;0.90;99.90
34985;DHT22;21190;58.750;17.004;2024-03-17T13:55:25;0.70;99.90
34985;DHT22;21190;58.750;17.004;2024-03-17T13:57:53;0.70;99.90
34985;DHT22;21190;58.750;17.004;2024-03-17T14:00:23;0.70;99.90
34985;DHT22;21190;58.750;17.004;2024-03-17T14:02:51;0.70;99.90
34985;DHT22;21190;58.750;17.004;2024-03-17T14:05:22;0.70;99.90
34985;DHT22;21190;58.750;17.004;2024-03-17T14:07:49;0.70;99.90
34985;DHT22;21190;58.750;17.004;2024-03-17T14:10:17;0.70;99.90
34985;DHT22;21190;58.750;17.004;2024-03-17T14:12:43;0.60;99.90
34985;DHT22;21190;58.750;17.004;2024-03-17T14:15:11;0.60;99.90
34985;DHT22;21190;58.750;17.004;2024-03-17T14:17:38;0.60;99.90
34985;DHT22;21190;58.750;17.004;2024-03-17T14:20:05;0.70;99.90
34985;DHT22;21190;58.750;17.004;2024-03-17T14:22:32;0.60;99.90
34985;DHT22;21190;58.750;17.004;2024-03-17T14:24:58;0.50;99.90
34985;DHT22;21190;58.750;17.004;2024-03-17T14:27:24;0.50;99.90
34985;DHT22;21190;58.750;17.004;2024-03-17T14:29:53;0.60;99.90
34985;DHT22;21190;58.750;17.004;2024-03-17T14:32:19;0.70;99.90
34985;DHT22;21190;58.750;17.004;2024-03-17T14:34:47;0.60;99.90
34985;DHT22;21190;58.750;17.004;2024-03-17T14:37:13;0.50;99.90
34985;DHT22;21190;58.750;17.004;2024-03-17T14:39:40;0.50;99.90
34985;DHT22;21190;58.750;17.004;2024-03-17T14:42:06;0.50;99.90
34985;DHT22;21190;58.750;17.004;2024-03-17T14:44:34;0.50;99.90
34985;DHT22;21190;58.750;17.004;2024-03-17T14:47:04;0.40;99.90
34985;DHT22;21190;58.750;17.004;2024-03-17T14:49:30;0.40;99.90
34985;DHT22;21190;58.750;17.004;2024-03-17T14:51:57;0.30;99.90
34985;DHT22;21190;58.750;17.004;2024-03-17T14:54:23;0.30;99.90
34985;DHT22;21190;58.750;17.004;2024-03-17T14:56:49;0.20;99.90
34985;DHT22;21190;58.750;17.004;2024-03-17T14:59:15;0.20;99.90
34985;DHT22;21190;58.750;17.004;2024-03-17T15:01:45;0.20;99.90
34985;DHT22;21190;58.750;17.004;2024-03-17T15:04:11;0.20;99.90
34985;DHT22;21190;58.750;17.004;2024-03-17T15:06:42;0.30;99.90
34985;DHT22;21190;58.750;17.004;2024-03-17T15:09:11;0.20;99.90
34985;DHT22;21190;58.750;17.004;2024-03-17T15:11:45;0.20;99.90
34985;DHT22;21190;58.750;17.004;2024-03-17T15:14:12;0.20;99.90
34985;DHT22;21190;58.750;17.004;2024-03-17T15:16:38;0.20;99.90
34985;DHT22;21190;58.750;17.004;2024-03-17T15:19:06;0.20;99.90
34985;DHT22;21190;58.750;17.004;2024-03-17T15:21:32;0.20;99.90
34985;DHT22;21190;58.750;17.004;2024-03-17T15:23:59;0.20;99.90
34985;DHT22;21190;58.750;17.004;2024-03-17T15:26:26;0.20;99.90
34985;DHT22;21190;58.750;17.004;2024-03-17T15:28:52;0.20;99.90
34985;DHT22;21190;58.750;17.004;2024-03-17T15:31:18;0.20;99.90
34985;DHT22;21190;58.750;17.004;2024-03-17T15:33:50;0.20;99.90
34985;DHT22;21190;58.750;17.004;2024-03-17T15:36:17;0.10;99.90
34985;DHT22;21190;58.750;17.004;2024-03-17T15:38:43;0.00;99.90
34985;DHT22;21190;58.750;17.004;2024-03-17T15:41:10;-0.10;99.90
34985;DHT22;21190;58.750;17.004;2024-03-17T15:43:40;-0.10;99.90
34985;DHT22;21190;58.750;17.004;2024-03-17T15:46:09;-0.10;99.90
34985;DHT22;21190;58.750;17.004;2024-03-17T15:48:37;-0.10;99.90
34985;DHT22;21190;58.750;17.004;2024-03-17T15:51:04;-0.10;99.90
34985;DHT22;21190;58.750;17.004;2024-03-17T15:53:30;-0.10;99.90